sensor_id;sensor_type;location;lat;lon;timestamp;pressure;altitude;pressure_sealevel;temperature;humidity
77333;BME280;66408;51.326;12.070;2023-07-02T00:00:06;99676.09;;;19.71;68.33
77333;BME280;66408;51.326;12.070;2023-07-02T00:02:33;99671.41;;;19.79;67.85
77333;BME280;66408;51.326;12.070;2023-07-02T00:05:00;99676.16;;;19.78;67.87
77333;BME280;66408;51.326;12.070;2023-07-02T00:07:27;99674.59;;;19.77;67.97
77333;BME280;66408;51.326;12.070;2023-07-02T00:09:53;99679.28;;;19.73;68.14
77333;BME280;66408;51.326;12.070;2023-07-02T00:12:20;99681.53;;;19.60;68.43
77333;BME280;66408;51.326;12.070;2023-07-02T00:14:47;99679.09;;;19.55;68.78
77333;BME280;66408;51.326;12.070;2023-07-02T00:17:13;99681.56;;;19.64;68.84
77333;BME280;66408;51.326;12.070;2023-07-02T00:19:40;99682.31;;;19.61;68.88
77333;BME280;66408;51.326;12.070;2023-07-02T00:22:09;99685.91;;;19.65;69.07
77333;BME280;66408;51.326;12.070;2023-07-02T00:24:36;99678.00;;;19.63;68.60
77333;BME280;66408;51.326;12.070;2023-07-02T00:27:05;99681.53;;;19.60;69.07
77333;BME280;66408;51.326;12.070;2023-07-02T00:29:31;99668.16;;;19.62;68.97
77333;BME280;66408;51.326;12.070;2023-07-02T00:31:58;99675.25;;;19.63;68.84
77333;BME280;66408;51.326;12.070;2023-07-02T00:34:24;99677.13;;;19.56;68.90
77333;BME280;66408;51.326;12.070;2023-07-02T00:36:51;99679.59;;;19.64;68.82
77333;BME280;66408;51.326;12.070;2023-07-02T00:39:18;99682.75;;;19.66;68.91
77333;BME280;66408;51.326;12.070;2023-07-02T00:41:45;99681.19;;;19.69;68.60
77333;BME280;66408;51.326;12.070;2023-07-02T00:44:14;99688.16;;;19.56;69.20
77333;BME280;66408;51.326;12.070;2023-07-02T00:46:40;99688.59;;;19.58;69.38
77333;BME280;66408;51.326;12.070;2023-07-02T00:49:08;99687.09;;;19.64;69.20
77333;BME280;66408;51.326;12.070;2023-07-02T00:51:34;99678.75;;;19.60;69.55
77333;BME280;66408;51.326;12.070;2023-07-02T00:54:01;99687.09;;;19.64;69.36
77333;BME280;66408;51.326;12.070;2023-07-02T00:56:27;99687.09;;;19.64;69.35
77333;BME280;66408;51.326;12.070;2023-07-02T00:58:55;99679.63;;;19.68;69.19
77333;BME280;66408;51.326;12.070;2023-07-02T01:01:25;99682.38;;;19.68;69.21
77333;BME280;66408;51.326;12.070;2023-07-02T01:04:04;99689.84;;;19.67;69.55
77333;BME280;66408;51.326;12.070;2023-07-02T01:06:35;99690.66;;;19.68;69.95
77333;BME280;66408;51.326;12.070;2023-07-02T01:09:04;99680.78;;;19.63;70.62
77333;BME280;66408;51.326;12.070;2023-07-02T01:11:43;99679.94;;;19.59;71.07
77333;BME280;66408;51.326;12.070;2023-07-02T01:14:14;99681.84;;;19.55;70.75
77333;BME280;66408;51.326;12.070;2023-07-02T01:16:42;99668.47;;;19.57;71.06
77333;BME280;66408;51.326;12.070;2023-07-02T01:22:10;99680.97;;;19.48;70.93
77333;BME280;66408;51.326;12.070;2023-07-02T01:24:39;99676.63;;;19.47;71.12
77333;BME280;66408;51.326;12.070;2023-07-02T01:27:06;99676.69;;;19.50;70.49
77333;BME280;66408;51.326;12.070;2023-07-02T01:29:32;99664.94;;;19.57;70.12
77333;BME280;66408;51.326;12.070;2023-07-02T01:32:03;99682.63;;;19.52;70.00
77333;BME280;66408;51.326;12.070;2023-07-02T01:34:30;99684.59;;;19.52;70.55
77333;BME280;66408;51.326;12.070;2023-07-02T01:36:57;99680.97;;;19.48;70.54
77333;BME280;66408;51.326;12.070;2023-07-02T01:39:23;99676.31;;;19.52;70.17
77333;BME280;66408;51.326;12.070;2023-07-02T01:41:51;99675.13;;;19.49;70.46
77333;BME280;66408;51.326;12.070;2023-07-02T01:44:19;99696.38;;;19.49;70.16
77333;BME280;66408;51.326;12.070;2023-07-02T01:46:47;99695.13;;;19.46;70.55
77333;BME280;66408;51.326;12.070;2023-07-02T01:49:17;99700.97;;;19.37;70.83
77333;BME280;66408;51.326;12.070;2023-07-02T01:51:48;99709.69;;;19.43;70.28
77333;BME280;66408;51.326;12.070;2023-07-02T01:54:15;99697.91;;;19.46;70.06
77333;BME280;66408;51.326;12.070;2023-07-02T01:56:41;99697.84;;;19.43;70.35
77333;BME280;66408;51.326;12.070;2023-07-02T01:59:08;99699.38;;;19.36;70.14
77333;BME280;66408;51.326;12.070;2023-07-02T02:01:35;99705.69;;;19.37;70.18
77333;BME280;66408;51.326;12.070;2023-07-02T02:04:01;99699.44;;;19.40;70.06
77333;BME280;66408;51.326;12.070;2023-07-02T02:06:28;99707.69;;;19.40;69.51
77333;BME280;66408;51.326;12.070;2023-07-02T02:08:54;99698.63;;;19.40;69.51
77333;BME280;66408;51.326;12.070;2023-07-02T02:11:21;99709.25;;;19.37;69.73
77333;BME280;66408;51.326;12.070;2023-07-02T02:13:47;99708.88;;;19.39;69.41
77333;BME280;66408;51.326;12.070;2023-07-02T02:16:15;99714.00;;;19.41;69.33
77333;BME280;66408;51.326;12.070;2023-07-02T02:18:42;99707.66;;;19.36;69.51
77333;BME280;66408;51.326;12.070;2023-07-02T02:21:08;99704.09;;;19.36;69.29
77333;BME280;66408;51.326;12.070;2023-07-02T02:23:35;99701.72;;;19.34;69.35
77333;BME280;66408;51.326;12.070;2023-07-02T02:26:01;99709.25;;;19.41;69.45
77333;BME280;66408;51.326;12.070;2023-07-02T02:28:28;99709.66;;;19.40;69.12
77333;BME280;66408;51.326;12.070;2023-07-02T02:30:54;99720.28;;;19.37;69.53
77333;BME280;66408;51.326;12.070;2023-07-02T02:33:22;99722.22;;;19.37;69.32
77333;BME280;66408;51.326;12.070;2023-07-02T02:35:48;99727.31;;;19.35;69.49
77333;BME280;66408;51.326;12.070;2023-07-02T02:38:15;99726.91;;;19.33;69.71
77333;BME280;66408;51.326;12.070;2023-07-02T02:40:42;99729.66;;;19.33;69.43
77333;BME280;66408;51.326;12.070;2023-07-02T02:43:08;99739.03;;;19.25;69.36
77333;BME280;66408;51.326;12.070;2023-07-02T02:45:35;99729.91;;;19.21;69.25
77333;BME280;66408;51.326;12.070;2023-07-02T02:48:01;99740.09;;;19.17;68.72
77333;BME280;66408;51.326;12.070;2023-07-02T02:50:28;99728.81;;;19.25;68.30
77333;BME280;66408;51.326;12.070;2023-07-02T02:52:54;99733.09;;;19.23;68.07
77333;BME280;66408;51.326;12.070;2023-07-02T02:55:21;99737.75;;;19.15;67.36
77333;BME280;66408;51.326;12.070;2023-07-02T02:57:47;99738.94;;;19.18;66.49
77333;BME280;66408;51.326;12.070;2023-07-02T03:00:14;99747.59;;;19.16;66.95
77333;BME280;66408;51.326;12.070;2023-07-02T03:02:40;99746.75;;;19.12;66.69
77333;BME280;66408;51.326;12.070;2023-07-02T03:05:08;99751.53;;;19.15;66.23
77333;BME280;66408;51.326;12.070;2023-07-02T03:07:34;99746.25;;;19.03;66.74
77333;BME280;66408;51.326;12.070;2023-07-02T03:10:01;99741.94;;;19.06;66.34
77333;BME280;66408;51.326;12.070;2023-07-02T03:12:28;99744.31;;;19.07;66.16
77333;BME280;66408;51.326;12.070;2023-07-02T03:14:54;99742.72;;;19.06;66.01
77333;BME280;66408;51.326;12.070;2023-07-02T03:17:22;99738.81;;;19.07;65.97
77333;BME280;66408;51.326;12.070;2023-07-02T03:19:49;99742.34;;;19.08;66.06
77333;BME280;66408;51.326;12.070;2023-07-02T03:22:16;99742.41;;;19.11;65.87
77333;BME280;66408;51.326;12.070;2023-07-02T03:24:42;99750.69;;;19.11;66.03
77333;BME280;66408;51.326;12.070;2023-07-02T03:27:09;99751.00;;;19.06;65.99
77333;BME280;66408;51.326;12.070;2023-07-02T03:29:36;99753.13;;;19.16;65.70
77333;BME280;66408;51.326;12.070;2023-07-02T03:32:04;99752.59;;;19.07;66.15
77333;BME280;66408;51.326;12.070;2023-07-02T03:34:31;99752.16;;;19.05;66.67
77333;BME280;66408;51.326;12.070;2023-07-02T03:36:57;99749.75;;;19.00;66.98
77333;BME280;66408;51.326;12.070;2023-07-02T03:39:24;99756.56;;;19.10;66.63
77333;BME280;66408;51.326;12.070;2023-07-02T03:41:51;99763.53;;;19.00;67.23
77333;BME280;66408;51.326;12.070;2023-07-02T03:44:17;99770.28;;;19.06;67.32
77333;BME280;66408;51.326;12.070;2023-07-02T03:46:45;99768.94;;;18.93;67.70
77333;BME280;66408;51.326;12.070;2023-07-02T03:49:12;99767.50;;;19.02;67.26
77333;BME280;66408;51.326;12.070;2023-07-02T03:51:39;99770.63;;;19.01;67.83
77333;BME280;66408;51.326;12.070;2023-07-02T03:54:06;99772.91;;;18.95;67.83
77333;BME280;66408;51.326;12.070;2023-07-02T03:56:32;99780.06;;;19.00;67.76
77333;BME280;66408;51.326;12.070;2023-07-02T03:58:59;99776.88;;;18.98;67.63
77333;BME280;66408;51.326;12.070;2023-07-02T04:01:25;99781.66;;;19.01;67.95
77333;BME280;66408;51.326;12.070;2023-07-02T04:03:52;99788.34;;;19.00;67.82
77333;BME280;66408;51.326;12.070;2023-07-02T04:06:19;99787.03;;;18.90;68.30
77333;BME280;66408;51.326;12.070;2023-07-02T04:08:46;99787.81;;;18.91;68.50
77333;BME280;66408;51.326;12.070;2023-07-02T04:11:12;99787.63;;;19.07;67.41
77333;BME280;66408;51.326;12.070;2023-07-02T04:13:39;99788.84;;;19.09;67.63
77333;BME280;66408;51.326;12.070;2023-07-02T04:16:06;99789.59;;;19.06;67.21
77333;BME280;66408;51.326;12.070;2023-07-02T04:18:33;99783.75;;;19.11;66.96
77333;BME280;66408;51.326;12.070;2023-07-02T04:21:02;99778.53;;;19.02;67.48
77333;BME280;66408;51.326;12.070;2023-07-02T04:23:28;99780.38;;;18.95;67.50
77333;BME280;66408;51.326;12.070;2023-07-02T04:25:55;99782.03;;;18.99;67.47
77333;BME280;66408;51.326;12.070;2023-07-02T04:28:43;99783.13;;;18.95;66.76
77333;BME280;66408;51.326;12.070;2023-07-02T04:31:09;99783.94;;;18.95;66.97
77333;BME280;66408;51.326;12.070;2023-07-02T04:33:36;99790.34;;;19.03;66.85
77333;BME280;66408;51.326;12.070;2023-07-02T04:36:03;99789.16;;;19.04;66.35
77333;BME280;66408;51.326;12.070;2023-07-02T04:38:30;99795.38;;;18.97;66.68
77333;BME280;66408;51.326;12.070;2023-07-02T04:40:56;99793.09;;;19.03;66.38
77333;BME280;66408;51.326;12.070;2023-07-02T04:43:32;99797.91;;;19.10;66.67
77333;BME280;66408;51.326;12.070;2023-07-02T04:45:59;99794.28;;;19.06;66.71
77333;BME280;66408;51.326;12.070;2023-07-02T04:48:26;99797.97;;;19.13;66.02
77333;BME280;66408;51.326;12.070;2023-07-02T04:50:53;99803.91;;;19.19;65.99
77333;BME280;66408;51.326;12.070;2023-07-02T04:53:19;99797.34;;;19.27;65.67
77333;BME280;66408;51.326;12.070;2023-07-02T04:55:46;99796.19;;;19.31;65.38
77333;BME280;66408;51.326;12.070;2023-07-02T04:58:13;99810.09;;;19.38;64.36
77333;BME280;66408;51.326;12.070;2023-07-02T05:00:39;99809.75;;;19.44;64.19
77333;BME280;66408;51.326;12.070;2023-07-02T05:03:05;99811.75;;;19.47;64.24
77333;BME280;66408;51.326;12.070;2023-07-02T05:05:32;99812.25;;;19.52;63.85
77333;BME280;66408;51.326;12.070;2023-07-02T05:07:58;99805.22;;;19.58;63.26
77333;BME280;66408;51.326;12.070;2023-07-02T05:10:25;99806.75;;;19.56;63.04
77333;BME280;66408;51.326;12.070;2023-07-02T05:12:52;99815.09;;;19.59;62.84
77333;BME280;66408;51.326;12.070;2023-07-02T05:15:18;99813.59;;;19.65;62.56
77333;BME280;66408;51.326;12.070;2023-07-02T05:17:44;99815.03;;;19.52;62.38
77333;BME280;66408;51.326;12.070;2023-07-02T05:20:11;99810.41;;;19.63;61.67
77333;BME280;66408;51.326;12.070;2023-07-02T05:22:38;99817.91;;;19.63;62.05
77333;BME280;66408;51.326;12.070;2023-07-02T05:25:05;99821.94;;;19.72;61.41
77333;BME280;66408;51.326;12.070;2023-07-02T05:27:32;99817.25;;;19.77;61.75
77333;BME280;66408;51.326;12.070;2023-07-02T05:29:58;99817.31;;;19.84;60.73
77333;BME280;66408;51.326;12.070;2023-07-02T05:32:25;99822.19;;;19.97;60.73
77333;BME280;66408;51.326;12.070;2023-07-02T05:34:51;99820.72;;;20.07;59.84
77333;BME280;66408;51.326;12.070;2023-07-02T05:37:18;99826.22;;;20.07;60.35
77333;BME280;66408;51.326;12.070;2023-07-02T05:39:45;99817.91;;;20.00;59.77
77333;BME280;66408;51.326;12.070;2023-07-02T05:42:11;99820.66;;;20.03;59.37
77333;BME280;66408;51.326;12.070;2023-07-02T05:44:38;99817.91;;;20.03;59.57
77333;BME280;66408;51.326;12.070;2023-07-02T05:47:05;99823.88;;;20.09;59.21
77333;BME280;66408;51.326;12.070;2023-07-02T05:49:31;99817.16;;;20.06;59.21
77333;BME280;66408;51.326;12.070;2023-07-02T05:51:58;99820.44;;;20.19;59.20
77333;BME280;66408;51.326;12.070;2023-07-02T05:54:24;99828.34;;;20.21;58.97
77333;BME280;66408;51.326;12.070;2023-07-02T05:56:51;99820.09;;;20.28;58.27
77333;BME280;66408;51.326;12.070;2023-07-02T05:59:17;99811.44;;;20.29;56.85
77333;BME280;66408;51.326;12.070;2023-07-02T06:01:45;99810.66;;;20.29;57.01
77333;BME280;66408;51.326;12.070;2023-07-02T06:04:12;99823.00;;;20.38;56.66
77333;BME280;66408;51.326;12.070;2023-07-02T06:06:38;99810.00;;;20.42;56.76
77333;BME280;66408;51.326;12.070;2023-07-02T06:09:05;99817.16;;;20.47;57.41
77333;BME280;66408;51.326;12.070;2023-07-02T06:11:31;99812.41;;;20.48;57.96
77333;BME280;66408;51.326;12.070;2023-07-02T06:13:58;99811.75;;;20.61;58.43
77333;BME280;66408;51.326;12.070;2023-07-02T06:16:25;99809.50;;;20.81;57.33
77333;BME280;66408;51.326;12.070;2023-07-02T06:18:51;99801.66;;;20.90;57.48
77333;BME280;66408;51.326;12.070;2023-07-02T06:21:18;99810.44;;;21.06;57.16
77333;BME280;66408;51.326;12.070;2023-07-02T06:23:46;99810.47;;;21.17;56.51
77333;BME280;66408;51.326;12.070;2023-07-02T06:26:12;99815.22;;;21.16;56.82
77333;BME280;66408;51.326;12.070;2023-07-02T06:28:39;99816.09;;;21.28;56.77
77333;BME280;66408;51.326;12.070;2023-07-02T06:31:05;99807.31;;;21.15;57.36
77333;BME280;66408;51.326;12.070;2023-07-02T06:33:32;99813.69;;;21.19;57.76
77333;BME280;66408;51.326;12.070;2023-07-02T06:35:59;99817.69;;;21.32;56.05
77333;BME280;66408;51.326;12.070;2023-07-02T06:38:25;99824.00;;;21.26;55.76
77333;BME280;66408;51.326;12.070;2023-07-02T06:40:52;99829.19;;;21.41;56.15
77333;BME280;66408;51.326;12.070;2023-07-02T06:43:18;99822.56;;;21.64;55.82
77333;BME280;66408;51.326;12.070;2023-07-02T06:45:45;99821.06;;;21.95;54.30
77333;BME280;66408;51.326;12.070;2023-07-02T06:48:12;99829.44;;;22.09;54.04
77333;BME280;66408;51.326;12.070;2023-07-02T06:50:38;99828.25;;;22.28;53.74
77333;BME280;66408;51.326;12.070;2023-07-02T06:53:05;99823.91;;;22.51;53.12
77333;BME280;66408;51.326;12.070;2023-07-02T06:55:31;99819.94;;;22.70;51.93
77333;BME280;66408;51.326;12.070;2023-07-02T06:57:58;99825.09;;;22.82;52.14
77333;BME280;66408;51.326;12.070;2023-07-02T07:00:24;99829.75;;;23.17;50.51
77333;BME280;66408;51.326;12.070;2023-07-02T07:02:51;99834.44;;;23.45;50.44
77333;BME280;66408;51.326;12.070;2023-07-02T07:05:18;99831.63;;;23.59;49.68
77333;BME280;66408;51.326;12.070;2023-07-02T07:07:44;99836.78;;;23.54;48.30
77333;BME280;66408;51.326;12.070;2023-07-02T07:10:11;99848.31;;;23.38;46.45
77333;BME280;66408;51.326;12.070;2023-07-02T07:12:38;99844.81;;;23.16;45.80
77333;BME280;66408;51.326;12.070;2023-07-02T07:15:05;99849.59;;;23.02;46.47
77333;BME280;66408;51.326;12.070;2023-07-02T07:17:31;99858.75;;;22.84;46.93
77333;BME280;66408;51.326;12.070;2023-07-02T07:19:58;99864.28;;;22.74;45.48
77333;BME280;66408;51.326;12.070;2023-07-02T07:22:24;99858.34;;;22.57;44.49
77333;BME280;66408;51.326;12.070;2023-07-02T07:24:51;99855.97;;;22.56;45.12
77333;BME280;66408;51.326;12.070;2023-07-02T07:27:17;99860.69;;;22.38;44.86
77333;BME280;66408;51.326;12.070;2023-07-02T07:29:44;99850.81;;;22.23;44.93
77333;BME280;66408;51.326;12.070;2023-07-02T07:32:10;99861.50;;;22.20;45.77
77333;BME280;66408;51.326;12.070;2023-07-02T07:34:37;99860.59;;;21.84;46.10
77333;BME280;66408;51.326;12.070;2023-07-02T07:37:04;99859.03;;;21.87;45.77
77333;BME280;66408;51.326;12.070;2023-07-02T07:39:31;99858.59;;;21.78;45.90
77333;BME280;66408;51.326;12.070;2023-07-02T07:41:57;99859.41;;;21.85;45.09
77333;BME280;66408;51.326;12.070;2023-07-02T07:44:24;99851.09;;;21.89;45.62
77333;BME280;66408;51.326;12.070;2023-07-02T07:46:55;99850.72;;;21.91;44.99
77333;BME280;66408;51.326;12.070;2023-07-02T07:49:22;99849.94;;;21.94;45.81
77333;BME280;66408;51.326;12.070;2023-07-02T07:51:49;99850.34;;;21.96;46.69
77333;BME280;66408;51.326;12.070;2023-07-02T07:54:15;99845.97;;;21.95;46.00
77333;BME280;66408;51.326;12.070;2023-07-02T07:56:42;99850.41;;;22.10;44.71
77333;BME280;66408;51.326;12.070;2023-07-02T07:59:09;99858.31;;;22.18;44.75
77333;BME280;66408;51.326;12.070;2023-07-02T08:01:37;99861.91;;;22.23;45.02
77333;BME280;66408;51.326;12.070;2023-07-02T08:04:04;99854.00;;;22.35;45.69
77333;BME280;66408;51.326;12.070;2023-07-02T08:06:30;99852.41;;;22.45;44.55
77333;BME280;66408;51.326;12.070;2023-07-02T08:08:58;99859.91;;;22.19;44.57
77333;BME280;66408;51.326;12.070;2023-07-02T08:11:24;99867.44;;;22.30;44.63
77333;BME280;66408;51.326;12.070;2023-07-02T08:13:51;99873.34;;;22.17;45.45
77333;BME280;66408;51.326;12.070;2023-07-02T08:16:20;99866.22;;;22.09;45.61
77333;BME280;66408;51.326;12.070;2023-07-02T08:18:47;99866.63;;;22.11;46.37
77333;BME280;66408;51.326;12.070;2023-07-02T08:21:13;99870.19;;;22.15;46.12
77333;BME280;66408;51.326;12.070;2023-07-02T08:23:42;99870.97;;;22.16;46.70
77333;BME280;66408;51.326;12.070;2023-07-02T08:26:10;99878.91;;;22.25;45.92
77333;BME280;66408;51.326;12.070;2023-07-02T08:28:40;99871.78;;;22.24;46.44
77333;BME280;66408;51.326;12.070;2023-07-02T08:31:07;99876.13;;;22.17;46.81
77333;BME280;66408;51.326;12.070;2023-07-02T08:33:33;99859.13;;;22.12;46.21
77333;BME280;66408;51.326;12.070;2023-07-02T08:36:00;99864.56;;;21.91;47.12
77333;BME280;66408;51.326;12.070;2023-07-02T08:38:27;99863.38;;;21.95;47.78
77333;BME280;66408;51.326;12.070;2023-07-02T08:40:54;99864.22;;;22.06;46.90
77333;BME280;66408;51.326;12.070;2023-07-02T08:43:21;99863.88;;;22.29;46.65
77333;BME280;66408;51.326;12.070;2023-07-02T08:45:48;99859.94;;;22.48;46.60
77333;BME280;66408;51.326;12.070;2023-07-02T08:48:15;99874.19;;;22.57;45.61
77333;BME280;66408;51.326;12.070;2023-07-02T08:50:42;99871.81;;;22.73;45.59
77333;BME280;66408;51.326;12.070;2023-07-02T08:53:08;99882.91;;;22.87;44.61
77333;BME280;66408;51.326;12.070;2023-07-02T08:55:35;99881.31;;;22.90;44.70
77333;BME280;66408;51.326;12.070;2023-07-02T08:58:01;99878.56;;;22.86;45.27
77333;BME280;66408;51.326;12.070;2023-07-02T09:00:28;99880.13;;;22.77;45.42
77333;BME280;66408;51.326;12.070;2023-07-02T09:02:57;99880.16;;;22.80;45.59
77333;BME280;66408;51.326;12.070;2023-07-02T09:05:24;99882.06;;;23.15;45.18
77333;BME280;66408;51.326;12.070;2023-07-02T09:07:50;99881.28;;;23.22;44.38
77333;BME280;66408;51.326;12.070;2023-07-02T09:10:27;99871.34;;;23.35;44.35
77333;BME280;66408;51.326;12.070;2023-07-02T09:13:07;99880.25;;;23.89;44.04
77333;BME280;66408;51.326;12.070;2023-07-02T09:15:40;99881.66;;;24.22;43.30
77333;BME280;66408;51.326;12.070;2023-07-02T09:18:18;99882.91;;;24.73;42.40
77333;BME280;66408;51.326;12.070;2023-07-02T09:20:45;99887.59;;;25.24;40.38
77333;BME280;66408;51.326;12.070;2023-07-02T09:23:12;99890.19;;;25.41;40.16
77333;BME280;66408;51.326;12.070;2023-07-02T09:25:39;99879.47;;;26.04;38.86
77333;BME280;66408;51.326;12.070;2023-07-02T09:28:21;99873.16;;;26.27;38.20
77333;BME280;66408;51.326;12.070;2023-07-02T09:30:54;99872.25;;;26.61;37.38
77333;BME280;66408;51.326;12.070;2023-07-02T09:33:23;99869.19;;;26.78;36.91
77333;BME280;66408;51.326;12.070;2023-07-02T09:35:50;99869.50;;;27.07;36.29
77333;BME280;66408;51.326;12.070;2023-07-02T09:38:19;99878.94;;;27.13;36.02
77333;BME280;66408;51.326;12.070;2023-07-02T09:40:49;99870.31;;;27.28;36.06
77333;BME280;66408;51.326;12.070;2023-07-02T09:43:17;99878.06;;;27.79;35.74
77333;BME280;66408;51.326;12.070;2023-07-02T09:45:47;99877.09;;;28.42;34.69
77333;BME280;66408;51.326;12.070;2023-07-02T09:48:15;99868.25;;;28.27;34.47
77333;BME280;66408;51.326;12.070;2023-07-02T09:50:47;99873.41;;;28.29;33.80
77333;BME280;66408;51.326;12.070;2023-07-02T09:53:15;99870.28;;;28.43;33.73
77333;BME280;66408;51.326;12.070;2023-07-02T09:55:43;99883.78;;;29.09;33.46
77333;BME280;66408;51.326;12.070;2023-07-02T09:58:10;99876.88;;;29.43;31.79
77333;BME280;66408;51.326;12.070;2023-07-02T10:00:38;99872.06;;;29.14;30.01
77333;BME280;66408;51.326;12.070;2023-07-02T10:03:05;99873.44;;;29.22;30.73
77333;BME280;66408;51.326;12.070;2023-07-02T10:05:33;99885.19;;;29.17;30.97
77333;BME280;66408;51.326;12.070;2023-07-02T10:08:16;99870.47;;;29.13;30.36
77333;BME280;66408;51.326;12.070;2023-07-02T10:10:47;99879.47;;;28.92;30.38
77333;BME280;66408;51.326;12.070;2023-07-02T10:13:26;99871.56;;;28.71;31.17
77333;BME280;66408;51.326;12.070;2023-07-02T10:16:01;99877.16;;;29.03;31.05
77333;BME280;66408;51.326;12.070;2023-07-02T10:18:27;99876.63;;;29.37;29.39
77333;BME280;66408;51.326;12.070;2023-07-02T10:20:54;99888.59;;;29.54;29.76
77333;BME280;66408;51.326;12.070;2023-07-02T10:23:33;99885.84;;;29.21;29.76
77333;BME280;66408;51.326;12.070;2023-07-02T10:26:30;99881.19;;;29.31;29.99
77333;BME280;66408;51.326;12.070;2023-07-02T10:28:59;99892.91;;;28.97;31.03
77333;BME280;66408;51.326;12.070;2023-07-02T10:31:25;99900.34;;;28.71;32.01
77333;BME280;66408;51.326;12.070;2023-07-02T10:33:52;99898.06;;;28.50;32.06
77333;BME280;66408;51.326;12.070;2023-07-02T10:36:23;99927.75;;;28.28;32.25
77333;BME280;66408;51.326;12.070;2023-07-02T10:38:50;99921.91;;;27.63;33.08
77333;BME280;66408;51.326;12.070;2023-07-02T10:41:28;99921.78;;;26.80;34.51
77333;BME280;66408;51.326;12.070;2023-07-02T10:44:05;99927.81;;;26.21;35.62
77333;BME280;66408;51.326;12.070;2023-07-02T10:46:32;99939.66;;;25.68;36.46
77333;BME280;66408;51.326;12.070;2023-07-02T10:48:58;99925.44;;;25.55;37.34
77333;BME280;66408;51.326;12.070;2023-07-02T10:51:25;99930.97;;;25.96;36.91
77333;BME280;66408;51.326;12.070;2023-07-02T10:54:01;99922.19;;;26.55;36.31
77333;BME280;66408;51.326;12.070;2023-07-02T10:56:28;99936.66;;;26.97;34.74
77333;BME280;66408;51.326;12.070;2023-07-02T10:58:55;99927.22;;;27.34;34.24
77333;BME280;66408;51.326;12.070;2023-07-02T11:01:29;99915.41;;;27.46;34.07
77333;BME280;66408;51.326;12.070;2023-07-02T11:04:00;99918.56;;;28.07;33.74
77333;BME280;66408;51.326;12.070;2023-07-02T11:06:28;99915.03;;;28.75;32.90
77333;BME280;66408;51.326;12.070;2023-07-02T11:08:55;99921.72;;;29.43;31.25
77333;BME280;66408;51.326;12.070;2023-07-02T11:11:22;99930.66;;;29.21;31.17
77333;BME280;66408;51.326;12.070;2023-07-02T11:13:50;99919.56;;;29.18;31.71
77333;BME280;66408;51.326;12.070;2023-07-02T11:16:25;99923.47;;;29.37;31.35
77333;BME280;66408;51.326;12.070;2023-07-02T11:19:15;99930.13;;;29.43;31.21
77333;BME280;66408;51.326;12.070;2023-07-02T11:21:53;99925.25;;;28.49;31.58
77333;BME280;66408;51.326;12.070;2023-07-02T11:24:34;99927.72;;;28.96;31.00
77333;BME280;66408;51.326;12.070;2023-07-02T11:27:02;99918.53;;;29.12;31.33
77333;BME280;66408;51.326;12.070;2023-07-02T11:29:35;99921.75;;;29.10;31.37
77333;BME280;66408;51.326;12.070;2023-07-02T11:32:10;99916.00;;;29.01;31.38
77333;BME280;66408;51.326;12.070;2023-07-02T11:34:39;99914.66;;;29.67;30.41
77333;BME280;66408;51.326;12.070;2023-07-02T11:37:06;99919.47;;;30.08;29.17
77333;BME280;66408;51.326;12.070;2023-07-02T11:39:36;99921.59;;;30.29;29.43
77333;BME280;66408;51.326;12.070;2023-07-02T11:42:03;99913.69;;;30.66;28.30
77333;BME280;66408;51.326;12.070;2023-07-02T11:44:29;99916.56;;;30.75;27.64
77333;BME280;66408;51.326;12.070;2023-07-02T11:46:56;99913.03;;;30.96;27.14
77333;BME280;66408;51.326;12.070;2023-07-02T11:49:23;99918.31;;;30.94;27.90
77333;BME280;66408;51.326;12.070;2023-07-02T11:51:50;99914.63;;;30.97;27.47
77333;BME280;66408;51.326;12.070;2023-07-02T11:54:19;99913.19;;;30.42;27.39
77333;BME280;66408;51.326;12.070;2023-07-02T11:56:47;99913.94;;;30.05;28.15
77333;BME280;66408;51.326;12.070;2023-07-02T11:59:14;99918.94;;;29.84;27.66
77333;BME280;66408;51.326;12.070;2023-07-02T12:01:40;99923.84;;;29.39;28.42
77333;BME280;66408;51.326;12.070;2023-07-02T12:04:10;99915.66;;;28.99;29.23
77333;BME280;66408;51.326;12.070;2023-07-02T12:06:38;99924.41;;;28.85;30.00
77333;BME280;66408;51.326;12.070;2023-07-02T12:09:05;99927.72;;;28.64;30.83
77333;BME280;66408;51.326;12.070;2023-07-02T12:11:31;99927.25;;;28.13;30.85
77333;BME280;66408;51.326;12.070;2023-07-02T12:13:58;99930.22;;;27.86;31.47
77333;BME280;66408;51.326;12.070;2023-07-02T12:16:28;99946.78;;;27.34;31.23
77333;BME280;66408;51.326;12.070;2023-07-02T12:18:54;99937.34;;;27.04;31.72
77333;BME280;66408;51.326;12.070;2023-07-02T12:21:21;99939.00;;;27.22;31.56
77333;BME280;66408;51.326;12.070;2023-07-02T12:23:48;99919.50;;;26.98;31.03
77333;BME280;66408;51.326;12.070;2023-07-02T12:26:14;99923.06;;;27.65;31.17
77333;BME280;66408;51.326;12.070;2023-07-02T12:28:41;99913.69;;;28.31;29.40
77333;BME280;66408;51.326;12.070;2023-07-02T12:31:07;99908.47;;;28.49;29.05
77333;BME280;66408;51.326;12.070;2023-07-02T12:33:34;99921.63;;;28.85;29.21
77333;BME280;66408;51.326;12.070;2023-07-02T12:36:01;99928.63;;;28.93;28.01
77333;BME280;66408;51.326;12.070;2023-07-02T12:38:27;99921.38;;;28.79;29.08
77333;BME280;66408;51.326;12.070;2023-07-02T12:40:54;99925.09;;;28.73;28.41
77333;BME280;66408;51.326;12.070;2023-07-02T12:43:20;99924.09;;;28.31;29.38
77333;BME280;66408;51.326;12.070;2023-07-02T12:45:48;99932.91;;;28.09;29.85
77333;BME280;66408;51.326;12.070;2023-07-02T12:48:15;99928.19;;;28.26;29.98
77333;BME280;66408;51.326;12.070;2023-07-02T12:50:41;99924.25;;;28.04;29.58
77333;BME280;66408;51.326;12.070;2023-07-02T12:53:08;99930.31;;;27.39;30.26
77333;BME280;66408;51.326;12.070;2023-07-02T12:55:34;99936.38;;;27.34;30.87